Ferraz de Vasconcelos, Brazil
Current Conditions -  °F | °C
As of 8:00 PM on Thursday 18 Dec 2014 (Local Time) from SBGR Reporting Station
Clear Clear  
Wind Chill: 75°   Ceiling: Unl
Heat Index: 75°   Visibility: 6mi
Dew Point: 61°   Wind: 6mph
Humidity: 61%   Direction: 180°S
Pressure: 29.88"   Gusts: NA
Location:  23.54°S, 46.37°W
Report Text: SBGR 182200Z 18005KT CAVOK 24/16 Q1012
Loading
Personal Weather Stations






























Interactive Weather Map New forecast layout! Learn more

10-Day Weather Forecast

Advertisements
Track Severe Weather on mobile